Time;durP1;ratioP1;P1;durP2;ratioP2;P2;SDS_P1;SDS_P2;PMS_P1;PMS_P2;Temp;Humidity;BMP_temperature;BMP_pressure;BME280_temperature;BME280_humidity;BME280_pressure;Samples;Min_cycle;Max_cycle;Signal;HPM_P1;HPM_P2
2022/03/30 00:01:27;;;;;;;33.25;13.60;;;;;;;;;;5074637;28;20032;-73
2022/03/30 00:03:54;;;;;;;35.00;15.40;;;;;;;;;;5074566;28;20336;-73
2022/03/30 00:06:20;;;;;;;38.92;15.25;;;;;;;;;;5074398;28;20024;-73
2022/03/30 00:08:46;;;;;;;52.00;15.52;;;;;;;;;;5074453;28;20101;-73
2022/03/30 00:11:12;;;;;;;43.42;15.45;;;;;;;;;;5074341;28;20036;-73
2022/03/30 00:13:39;;;;;;;39.40;14.07;;;;;;;;;;5074354;28;20029;-73
2022/03/30 00:16:06;;;;;;;32.60;14.00;;;;;;;;;;5056347;28;20032;-73
2022/03/30 00:18:32;;;;;;;44.33;15.93;;;;;;;;;;5074267;28;20100;-73
2022/03/30 00:20:58;;;;;;;40.33;16.08;;;;;;;;;;5054139;28;20025;-73
2022/03/30 00:23:24;;;;;;;34.58;14.65;;;;;;;;;;5054209;28;20176;-73
2022/03/30 00:25:50;;;;;;;43.47;14.95;;;;;;;;;;5053939;28;20033;-73
2022/03/30 00:28:16;;;;;;;34.72;14.13;;;;;;;;;;5054009;28;20040;-73
2022/03/30 00:30:43;;;;;;;39.65;14.80;;;;;;;;;;5064306;28;20103;-73
2022/03/30 00:33:09;;;;;;;41.60;14.88;;;;;;;;;;5074030;28;20020;-73
2022/03/30 00:35:35;;;;;;;40.88;16.33;;;;;;;;;;5073965;28;20031;-73
2022/03/30 00:38:01;;;;;;;44.67;15.63;;;;;;;;;;5073946;28;20028;-73
2022/03/30 00:40:28;;;;;;;37.75;15.55;;;;;;;;;;5073752;28;20025;-73
2022/03/30 00:42:54;;;;;;;40.33;14.98;;;;;;;;;;5055643;28;20029;-73
2022/03/30 00:45:21;;;;;;;39.28;16.23;;;;;;;;;;5055714;28;20459;-73
2022/03/30 00:47:47;;;;;;;38.55;14.88;;;;;;;;;;5073541;28;20040;-73
2022/03/30 00:50:16;;;;;;;36.35;15.02;;;;;;;;;;5055637;28;20158;-73
2022/03/30 00:52:42;;;;;;;39.08;15.07;;;;;;;;;;5073549;28;20020;-73
2022/03/30 00:55:08;;;;;;;40.05;14.65;;;;;;;;;;5073474;28;20042;-73
2022/03/30 00:57:36;;;;;;;46.97;16.20;;;;;;;;;;5073485;28;20027;-73
2022/03/30 01:00:04;;;;;;;43.72;15.93;;;;;;;;;;5073490;28;20033;-73
2022/03/30 01:02:31;;;;;;;36.47;14.45;;;;;;;;;;5073575;28;20439;-73
2022/03/30 01:04:57;;;;;;;33.35;14.85;;;;;;;;;;5055592;28;20044;-73
2022/03/30 01:07:25;;;;;;;38.08;16.15;;;;;;;;;;5073186;28;20033;-73
2022/03/30 01:09:51;;;;;;;36.42;14.35;;;;;;;;;;5073308;28;20029;-73
2022/03/30 01:12:18;;;;;;;39.67;15.63;;;;;;;;;;5073249;28;20028;-73
2022/03/30 01:14:44;;;;;;;39.92;15.68;;;;;;;;;;5073028;28;20031;-73
2022/03/30 01:17:10;;;;;;;35.28;14.38;;;;;;;;;;5073248;28;20051;-73
2022/03/30 01:19:36;;;;;;;37.75;14.98;;;;;;;;;;5073011;28;20459;-73
2022/03/30 01:22:02;;;;;;;45.85;15.02;;;;;;;;;;5072969;28;20028;-73
2022/03/30 01:24:28;;;;;;;37.55;14.90;;;;;;;;;;5073231;28;20037;-73
2022/03/30 01:26:54;;;;;;;40.28;14.27;;;;;;;;;;5072705;28;20028;-73
2022/03/30 01:34:50;;;;;;;38.30;15.20;;;;;;;;;;5053080;28;20070;-73
2022/03/30 01:37:16;;;;;;;37.42;14.32;;;;;;;;;;5052761;28;20108;-73
2022/03/30 01:39:42;;;;;;;42.70;16.33;;;;;;;;;;5052839;28;20032;-73
2022/03/30 01:42:09;;;;;;;39.83;15.23;;;;;;;;;;5052407;28;20025;-73
2022/03/30 01:44:36;;;;;;;38.30;14.68;;;;;;;;;;5052645;28;20037;-73
2022/03/30 01:47:02;;;;;;;40.10;16.45;;;;;;;;;;5052425;28;20398;-73
2022/03/30 01:49:28;;;;;;;38.35;16.15;;;;;;;;;;5052497;28;20108;-73
2022/03/30 01:51:55;;;;;;;43.92;16.10;;;;;;;;;;5052467;28;20027;-73
2022/03/30 01:54:22;;;;;;;45.17;16.13;;;;;;;;;;5052411;28;20033;-73
2022/03/30 01:56:49;;;;;;;38.35;14.25;;;;;;;;;;5052426;28;20429;-73
2022/03/30 01:59:16;;;;;;;38.85;17.70;;;;;;;;;;5052410;28;20471;-73
2022/03/30 02:01:42;;;;;;;42.65;17.52;;;;;;;;;;5052373;28;20029;-73
2022/03/30 02:04:08;;;;;;;37.03;16.02;;;;;;;;;;5052298;28;20048;-73
2022/03/30 02:06:35;;;;;;;45.40;15.93;;;;;;;;;;5051625;28;20028;-73
2022/03/30 02:09:01;;;;;;;42.22;15.65;;;;;;;;;;5052228;28;20128;-73
2022/03/30 02:11:27;;;;;;;42.85;14.57;;;;;;;;;;5052213;28;20046;-73
2022/03/30 02:13:54;;;;;;;41.67;15.77;;;;;;;;;;5063323;28;20031;-73
2022/03/30 02:16:20;;;;;;;38.10;15.35;;;;;;;;;;5072169;28;20025;-73
2022/03/30 02:18:46;;;;;;;38.58;13.90;;;;;;;;;;5071947;28;20016;-73
2022/03/30 02:21:13;;;;;;;45.05;15.30;;;;;;;;;;5053775;28;20020;-73
2022/03/30 02:23:39;;;;;;;39.25;17.10;;;;;;;;;;5072089;28;20382;-73
2022/03/30 02:26:05;;;;;;;45.10;17.15;;;;;;;;;;5071777;28;20029;-73
2022/03/30 02:28:31;;;;;;;44.72;15.30;;;;;;;;;;5071889;28;20047;-73
2022/03/30 02:30:57;;;;;;;36.63;15.32;;;;;;;;;;5071810;28;20036;-75
2022/03/30 02:33:23;;;;;;;39.67;14.35;;;;;;;;;;5071940;28;20381;-73
2022/03/30 02:35:50;;;;;;;39.35;15.15;;;;;;;;;;5071774;28;20100;-74
2022/03/30 02:38:16;;;;;;;47.25;17.85;;;;;;;;;;5071828;28;20516;-73
2022/03/30 02:40:42;;;;;;;41.60;16.05;;;;;;;;;;5071495;28;20020;-73
2022/03/30 02:43:09;;;;;;;40.17;15.75;;;;;;;;;;5071796;28;20032;-75
2022/03/30 02:45:35;;;;;;;45.97;16.08;;;;;;;;;;5071670;28;20017;-75
2022/03/30 02:50:57;;;;;;;41.65;15.63;;;;;;;;;;4989947;28;20794;-74
2022/03/30 02:53:23;;;;;;;40.47;15.02;;;;;;;;;;4990258;28;20117;-74
2022/03/30 02:55:50;;;;;;;37.60;15.27;;;;;;;;;;4989816;28;20031;-74
2022/03/30 02:58:16;;;;;;;36.97;14.70;;;;;;;;;;4990150;28;20038;-74
2022/03/30 03:00:43;;;;;;;39.65;14.55;;;;;;;;;;4989984;28;20042;-74
2022/03/30 03:03:10;;;;;;;47.55;15.65;;;;;;;;;;4990029;28;20089;-74
2022/03/30 03:05:37;;;;;;;39.05;15.07;;;;;;;;;;4989915;28;20046;-74
2022/03/30 03:08:03;;;;;;;39.97;14.52;;;;;;;;;;4990099;28;20457;-74
2022/03/30 03:10:30;;;;;;;46.65;15.80;;;;;;;;;;4989955;28;20022;-74
2022/03/30 03:12:56;;;;;;;45.25;14.38;;;;;;;;;;4989765;28;20147;-74
2022/03/30 03:15:23;;;;;;;40.78;13.43;;;;;;;;;;4989846;28;20030;-74
2022/03/30 03:17:49;;;;;;;39.20;13.35;;;;;;;;;;4973638;28;20038;-74
2022/03/30 03:20:15;;;;;;;44.65;14.38;;;;;;;;;;4992401;28;20042;-74
2022/03/30 03:22:42;;;;;;;36.20;12.75;;;;;;;;;;4993667;28;20038;-74
2022/03/30 03:25:09;;;;;;;37.75;13.52;;;;;;;;;;4993695;28;20045;-74
2022/03/30 03:27:35;;;;;;;28.88;13.07;;;;;;;;;;5031029;28;20145;-74
2022/03/30 03:30:02;;;;;;;32.15;12.93;;;;;;;;;;5059740;28;20039;-74
2022/03/30 03:32:28;;;;;;;37.60;13.75;;;;;;;;;;5075310;28;20024;-74
2022/03/30 03:34:54;;;;;;;35.13;13.13;;;;;;;;;;5075144;28;20025;-74
2022/03/30 03:37:21;;;;;;;43.60;14.00;;;;;;;;;;5075013;28;20135;-74
2022/03/30 03:39:47;;;;;;;41.58;13.40;;;;;;;;;;5075031;28;20028;-74
2022/03/30 03:42:13;;;;;;;44.05;12.88;;;;;;;;;;5074870;28;20047;-75
2022/03/30 03:44:40;;;;;;;46.10;12.90;;;;;;;;;;5074899;28;20044;-73
2022/03/30 03:47:08;;;;;;;43.63;13.63;;;;;;;;;;5071141;28;20048;-75
2022/03/30 03:49:34;;;;;;;36.33;13.75;;;;;;;;;;5074241;28;20120;-75
2022/03/30 03:52:00;;;;;;;32.20;11.93;;;;;;;;;;5074673;28;20038;-75
2022/03/30 03:54:26;;;;;;;42.35;14.43;;;;;;;;;;5074705;28;20025;-75
2022/03/30 03:56:52;;;;;;;35.70;12.90;;;;;;;;;;5074589;28;20024;-74
2022/03/30 03:59:18;;;;;;;34.28;14.52;;;;;;;;;;5074677;28;20411;-74
2022/03/30 04:01:45;;;;;;;36.72;13.07;;;;;;;;;;5074676;28;20106;-74
2022/03/30 04:04:11;;;;;;;32.78;12.82;;;;;;;;;;5074657;28;20040;-74
2022/03/30 04:06:37;;;;;;;48.45;14.25;;;;;;;;;;5074345;28;20093;-74
2022/03/30 04:09:03;;;;;;;41.10;14.10;;;;;;;;;;5074445;28;20024;-74
2022/03/30 04:11:29;;;;;;;37.28;13.85;;;;;;;;;;5074438;28;20100;-75
2022/03/30 04:13:56;;;;;;;42.67;13.98;;;;;;;;;;5074177;28;20056;-74
2022/03/30 04:16:22;;;;;;;41.35;14.18;;;;;;;;;;5074410;28;20039;-75
2022/03/30 04:18:48;;;;;;;40.58;14.57;;;;;;;;;;5074261;28;20028;-75
2022/03/30 04:21:14;;;;;;;44.33;14.00;;;;;;;;;;5074100;28;20020;-75
2022/03/30 04:23:40;;;;;;;45.10;14.35;;;;;;;;;;5074272;28;20023;-74
2022/03/30 04:26:06;;;;;;;37.85;14.38;;;;;;;;;;5074038;28;20028;-75
2022/03/30 04:28:34;;;;;;;43.65;14.60;;;;;;;;;;5074123;28;20382;-74
2022/03/30 04:31:00;;;;;;;46.28;15.75;;;;;;;;;;5073552;28;20055;-75
2022/03/30 04:33:26;;;;;;;37.25;13.57;;;;;;;;;;5074175;28;20477;-75
2022/03/30 04:35:52;;;;;;;47.30;14.27;;;;;;;;;;5055795;28;20036;-75
2022/03/30 04:38:18;;;;;;;44.38;14.68;;;;;;;;;;5073996;28;20028;-75
2022/03/30 04:40:44;;;;;;;40.78;13.85;;;;;;;;;;5073673;28;20032;-74
2022/03/30 04:43:10;;;;;;;42.70;14.38;;;;;;;;;;5073905;28;20020;-75
2022/03/30 04:45:36;;;;;;;39.20;13.82;;;;;;;;;;5073807;28;20036;-75
2022/03/30 04:48:02;;;;;;;44.25;14.88;;;;;;;;;;5073637;28;20044;-75
2022/03/30 04:50:28;;;;;;;41.85;14.25;;;;;;;;;;5073829;28;20032;-75
2022/03/30 04:52:56;;;;;;;38.47;14.63;;;;;;;;;;5073594;28;20356;-75
2022/03/30 04:55:22;;;;;;;42.47;15.70;;;;;;;;;;5073480;28;20486;-75
2022/03/30 04:57:48;;;;;;;54.50;14.65;;;;;;;;;;5073871;28;20033;-75
2022/03/30 05:00:14;;;;;;;37.80;13.68;;;;;;;;;;5073878;28;20020;-74
2022/03/30 05:02:40;;;;;;;41.80;14.60;;;;;;;;;;5056028;28;20017;-75
2022/03/30 05:05:08;;;;;;;46.72;16.75;;;;;;;;;;5073888;28;20028;-75
2022/03/30 05:07:34;;;;;;;56.58;16.58;;;;;;;;;;5073527;28;20103;-74
2022/03/30 05:10:00;;;;;;;46.63;15.60;;;;;;;;;;5073282;28;20021;-75
2022/03/30 05:12:26;;;;;;;45.33;16.30;;;;;;;;;;5073245;28;20027;-74
2022/03/30 05:14:52;;;;;;;42.42;17.17;;;;;;;;;;5073165;28;20459;-75
2022/03/30 05:17:19;;;;;;;55.80;17.40;;;;;;;;;;5073249;28;20040;-74
2022/03/30 05:19:45;;;;;;;51.17;17.27;;;;;;;;;;5073056;28;20128;-74
2022/03/30 05:22:12;;;;;;;53.38;17.38;;;;;;;;;;5072775;28;20399;-74
2022/03/30 05:24:38;;;;;;;47.53;16.75;;;;;;;;;;5073210;28;20064;-74
2022/03/30 05:27:04;;;;;;;56.45;17.88;;;;;;;;;;5072650;28;20028;-75
2022/03/30 05:29:31;;;;;;;51.70;17.30;;;;;;;;;;5072936;28;20103;-74
2022/03/30 05:31:57;;;;;;;60.65;17.83;;;;;;;;;;5072899;28;20028;-74
2022/03/30 05:34:24;;;;;;;46.20;18.08;;;;;;;;;;5072658;28;20174;-75
2022/03/30 05:36:50;;;;;;;41.70;16.02;;;;;;;;;;5072701;28;20483;-75
2022/03/30 05:39:17;;;;;;;56.00;17.50;;;;;;;;;;5072556;28;20060;-74
2022/03/30 05:41:43;;;;;;;46.97;17.65;;;;;;;;;;5059437;28;20574;-74
2022/03/30 05:44:09;;;;;;;49.80;18.13;;;;;;;;;;5052557;28;20053;-75
2022/03/30 05:46:36;;;;;;;47.45;16.85;;;;;;;;;;5052526;28;20067;-74
2022/03/30 05:49:03;;;;;;;53.65;18.50;;;;;;;;;;5052376;28;20083;-75
2022/03/30 05:51:29;;;;;;;46.72;15.77;;;;;;;;;;5052578;28;20020;-74
2022/03/30 05:53:55;;;;;;;45.53;16.20;;;;;;;;;;5034495;28;20028;-74
2022/03/30 05:57:00;;;;;;;44.70;16.55;;;;;;;;;;5052245;28;20050;-75
2022/03/30 05:59:07;;;;;;;43.45;17.42;;;;;;;;;;5052207;28;20029;-74
2022/03/30 06:01:34;;;;;;;46.55;17.50;;;;;;;;;;5052290;28;20031;-75
2022/03/30 06:04:00;;;;;;;36.72;16.08;;;;;;;;;;5052140;28;20467;-75
2022/03/30 06:06:26;;;;;;;46.70;16.30;;;;;;;;;;5052076;28;20028;-75
2022/03/30 06:08:52;;;;;;;37.28;14.45;;;;;;;;;;5052128;28;20032;-75
2022/03/30 06:11:18;;;;;;;42.45;16.13;;;;;;;;;;5052033;28;20383;-75
2022/03/30 06:13:44;;;;;;;54.83;16.35;;;;;;;;;;5061998;28;20024;-74
2022/03/30 06:16:11;;;;;;;48.13;16.65;;;;;;;;;;5071928;28;20109;-75
2022/03/30 06:18:37;;;;;;;47.42;16.35;;;;;;;;;;5071904;28;20498;-75
2022/03/30 06:21:04;;;;;;;47.08;16.95;;;;;;;;;;5071735;28;20064;-75
2022/03/30 06:23:30;;;;;;;47.05;15.43;;;;;;;;;;5071901;28;20032;-74
2022/03/30 06:25:56;;;;;;;48.30;15.95;;;;;;;;;;5071681;28;20037;-75
2022/03/30 06:28:26;;;;;;;45.92;16.00;;;;;;;;;;5053782;28;20032;-74
2022/03/30 06:30:52;;;;;;;40.75;15.82;;;;;;;;;;5071762;28;20021;-75
2022/03/30 06:33:18;;;;;;;40.33;15.77;;;;;;;;;;5071801;28;20455;-74
2022/03/30 06:35:44;;;;;;;40.50;14.73;;;;;;;;;;5071625;28;20637;-75
2022/03/30 06:38:11;;;;;;;43.28;15.15;;;;;;;;;;5071821;28;20470;-75
2022/03/30 06:40:37;;;;;;;41.30;16.25;;;;;;;;;;5053317;28;20368;-75
2022/03/30 06:43:04;;;;;;;41.38;14.93;;;;;;;;;;5071719;28;20024;-75
2022/03/30 06:45:31;;;;;;;51.22;17.23;;;;;;;;;;5071595;28;20099;-75
2022/03/30 06:47:57;;;;;;;43.22;15.40;;;;;;;;;;5071458;28;20433;-75
2022/03/30 06:50:24;;;;;;;41.53;15.52;;;;;;;;;;5071616;28;20513;-75
2022/03/30 06:52:50;;;;;;;40.38;16.45;;;;;;;;;;5071366;28;20017;-75
2022/03/30 06:55:16;;;;;;;50.88;15.23;;;;;;;;;;5071585;28;20052;-75
2022/03/30 06:57:42;;;;;;;36.08;14.10;;;;;;;;;;5071415;28;20025;-75
2022/03/30 07:00:12;;;;;;;41.38;14.50;;;;;;;;;;5053573;28;20390;-74
2022/03/30 07:02:38;;;;;;;36.53;14.13;;;;;;;;;;5071537;28;20094;-75
2022/03/30 07:05:04;;;;;;;44.28;15.13;;;;;;;;;;5071468;28;20028;-75
2022/03/30 07:10:15;;;;;;;38.10;15.13;;;;;;;;;;5071643;28;20032;-75
2022/03/30 07:12:42;;;;;;;34.90;14.23;;;;;;;;;;5071216;28;20036;-75
2022/03/30 07:15:08;;;;;;;39.83;13.82;;;;;;;;;;5071353;28;20056;-75
2022/03/30 07:17:37;;;;;;;37.17;14.98;;;;;;;;;;5071395;28;20020;-75
2022/03/30 07:20:05;;;;;;;41.95;14.70;;;;;;;;;;5049928;28;20029;-75
2022/03/30 07:22:31;;;;;;;31.95;14.40;;;;;;;;;;5051190;28;20033;-75
2022/03/30 07:24:57;;;;;;;37.55;13.48;;;;;;;;;;5049765;28;20037;-75
2022/03/30 07:27:23;;;;;;;31.10;13.93;;;;;;;;;;5049761;28;20033;-75
2022/03/30 07:29:49;;;;;;;34.45;13.27;;;;;;;;;;5053975;28;20383;-75
2022/03/30 07:32:15;;;;;;;32.53;12.30;;;;;;;;;;5053170;28;20032;-75
2022/03/30 07:34:41;;;;;;;35.05;13.82;;;;;;;;;;5071245;28;20028;-75
2022/03/30 07:37:07;;;;;;;34.65;14.10;;;;;;;;;;5052929;28;20029;-75
2022/03/30 07:39:33;;;;;;;31.80;13.32;;;;;;;;;;5071152;28;20025;-75
2022/03/30 07:41:59;;;;;;;29.25;12.43;;;;;;;;;;5056531;28;20025;-75
2022/03/30 07:44:26;;;;;;;41.83;13.77;;;;;;;;;;5051015;28;20021;-75
2022/03/30 07:46:52;;;;;;;29.48;12.57;;;;;;;;;;5051001;28;20028;-75
2022/03/30 07:49:18;;;;;;;36.65;12.65;;;;;;;;;;5050787;28;20041;-75
2022/03/30 07:51:44;;;;;;;33.78;12.65;;;;;;;;;;5050974;28;20025;-75
2022/03/30 07:54:10;;;;;;;28.30;11.57;;;;;;;;;;5050962;28;20537;-75
2022/03/30 07:56:37;;;;;;;29.35;11.75;;;;;;;;;;5032964;28;20049;-75
2022/03/30 07:59:03;;;;;;;31.38;11.77;;;;;;;;;;5050945;28;20017;-75
2022/03/30 08:01:29;;;;;;;33.03;14.30;;;;;;;;;;5050911;28;20017;-75
2022/03/30 08:03:56;;;;;;;33.20;13.00;;;;;;;;;;5050913;28;20051;-75
2022/03/30 08:06:23;;;;;;;33.47;13.07;;;;;;;;;;5053417;28;20491;-75
2022/03/30 08:08:49;;;;;;;33.65;13.15;;;;;;;;;;5054529;28;20025;-75
2022/03/30 08:11:15;;;;;;;31.00;12.55;;;;;;;;;;5054294;28;20060;-75
2022/03/30 08:13:41;;;;;;;38.42;13.32;;;;;;;;;;5045806;28;20028;-75
2022/03/30 08:16:07;;;;;;;40.58;14.48;;;;;;;;;;5074341;28;20025;-74
2022/03/30 08:18:33;;;;;;;38.03;13.57;;;;;;;;;;5074407;28;20035;-75
2022/03/30 08:23:43;;;;;;;33.95;12.95;;;;;;;;;;5054185;28;20044;-75
2022/03/30 08:26:09;;;;;;;31.08;12.60;;;;;;;;;;5053927;28;20033;-75
2022/03/30 08:28:36;;;;;;;34.13;13.07;;;;;;;;;;5054181;28;20071;-75
2022/03/30 08:31:02;;;;;;;33.45;13.00;;;;;;;;;;5066994;28;20032;-75
2022/03/30 08:33:28;;;;;;;35.58;13.65;;;;;;;;;;5074046;28;20025;-75
2022/03/30 08:35:55;;;;;;;32.20;13.00;;;;;;;;;;5073872;28;20027;-75
2022/03/30 08:38:21;;;;;;;28.20;11.88;;;;;;;;;;5074068;28;20032;-75
2022/03/30 08:40:47;;;;;;;31.10;12.40;;;;;;;;;;5069266;28;20017;-75
2022/03/30 08:43:13;;;;;;;27.83;12.75;;;;;;;;;;5053905;28;20031;-75
2022/03/30 08:45:40;;;;;;;29.35;12.80;;;;;;;;;;5053748;28;20087;-75
2022/03/30 08:48:08;;;;;;;36.58;13.68;;;;;;;;;;5053699;28;20057;-75
2022/03/30 08:50:34;;;;;;;26.48;11.30;;;;;;;;;;5053771;28;20025;-75
2022/03/30 08:53:03;;;;;;;29.83;12.30;;;;;;;;;;5053731;28;20490;-75
2022/03/30 08:55:29;;;;;;;23.90;11.32;;;;;;;;;;5053670;28;20050;-75
2022/03/30 08:57:55;;;;;;;26.55;10.30;;;;;;;;;;5053525;28;20040;-75
2022/03/30 09:00:22;;;;;;;27.90;11.77;;;;;;;;;;5053623;28;20037;-75
2022/03/30 09:02:59;;;;;;;25.00;10.65;;;;;;;;;;5053574;28;20100;-75
2022/03/30 09:05:26;;;;;;;21.33;9.02;;;;;;;;;;5053599;28;20124;-75
2022/03/30 09:08:15;;;;;;;23.58;10.30;;;;;;;;;;5053273;28;20025;-75
2022/03/30 09:10:42;;;;;;;21.95;9.77;;;;;;;;;;4991565;28;20454;-75
2022/03/30 09:13:09;;;;;;;23.92;9.93;;;;;;;;;;4996428;28;20045;-75
2022/03/30 09:15:36;;;;;;;19.88;9.18;;;;;;;;;;5011288;28;20042;-75
2022/03/30 09:18:03;;;;;;;20.08;9.10;;;;;;;;;;5011375;28;20064;-75
2022/03/30 09:20:29;;;;;;;29.02;12.25;;;;;;;;;;4995480;28;20029;-75
2022/03/30 09:22:57;;;;;;;22.92;10.50;;;;;;;;;;4991424;28;20085;-75
2022/03/30 09:25:24;;;;;;;17.23;8.30;;;;;;;;;;4991276;28;20505;-74
2022/03/30 09:27:52;;;;;;;21.98;9.20;;;;;;;;;;4991174;28;20037;-75
2022/03/30 09:30:19;;;;;;;19.50;8.18;;;;;;;;;;4998093;28;20516;-75
2022/03/30 09:32:46;;;;;;;19.80;8.13;;;;;;;;;;5010857;28;20076;-75
2022/03/30 09:35:24;;;;;;;19.73;8.55;;;;;;;;;;5010764;28;20128;-75
2022/03/30 09:38:09;;;;;;;16.40;7.88;;;;;;;;;;5010822;28;20026;-75
2022/03/30 09:40:36;;;;;;;17.45;7.97;;;;;;;;;;5010531;28;20115;-75
2022/03/30 09:43:14;;;;;;;12.65;6.63;;;;;;;;;;5010863;28;20193;-75
2022/03/30 09:45:41;;;;;;;16.33;7.53;;;;;;;;;;5010751;28;20068;-75
2022/03/30 09:48:14;;;;;;;16.42;7.55;;;;;;;;;;5039004;28;20120;-75
2022/03/30 09:50:48;;;;;;;13.23;6.75;;;;;;;;;;5052597;28;20021;-75
2022/03/30 09:53:15;;;;;;;16.70;7.00;;;;;;;;;;5052697;28;20467;-75
2022/03/30 09:55:53;;;;;;;20.90;7.78;;;;;;;;;;5034347;28;20029;-75
2022/03/30 09:58:20;;;;;;;19.65;7.45;;;;;;;;;;5052543;28;20082;-75
2022/03/30 10:01:01;;;;;;;14.80;6.18;;;;;;;;;;5052424;28;20033;-75
2022/03/30 10:03:36;;;;;;;12.90;5.82;;;;;;;;;;5034452;28;20124;-75
2022/03/30 10:06:02;;;;;;;14.10;6.40;;;;;;;;;;5052070;28;20036;-75
2022/03/30 10:08:28;;;;;;;12.95;5.60;;;;;;;;;;5052224;28;20025;-75
2022/03/30 10:10:54;;;;;;;11.73;5.43;;;;;;;;;;5052121;28;20113;-75
2022/03/30 10:13:21;;;;;;;9.30;5.50;;;;;;;;;;5034305;28;20045;-75
2022/03/30 10:15:47;;;;;;;12.18;6.45;;;;;;;;;;5052505;28;20017;-75
2022/03/30 10:18:13;;;;;;;15.30;6.35;;;;;;;;;;5034257;28;20134;-75
2022/03/30 10:20:39;;;;;;;15.20;6.38;;;;;;;;;;5069249;28;20080;-75
2022/03/30 10:23:11;;;;;;;11.00;6.28;;;;;;;;;;5072088;28;20028;-75
2022/03/30 10:25:43;;;;;;;14.05;6.32;;;;;;;;;;5053728;28;20090;-75
2022/03/30 10:28:26;;;;;;;11.13;6.20;;;;;;;;;;5071511;28;20528;-75
2022/03/30 10:30:56;;;;;;;13.02;6.47;;;;;;;;;;5071828;28;20027;-75
2022/03/30 10:33:48;;;;;;;10.98;6.07;;;;;;;;;;5071902;28;20149;-75
2022/03/30 10:36:23;;;;;;;13.18;5.68;;;;;;;;;;5068259;28;20033;-75
2022/03/30 10:39:11;;;;;;;14.75;5.82;;;;;;;;;;5071969;28;20024;-75
2022/03/30 10:41:49;;;;;;;10.60;5.90;;;;;;;;;;5060332;28;20082;-75
2022/03/30 10:44:35;;;;;;;11.48;6.25;;;;;;;;;;5033643;28;20060;-75
2022/03/30 10:47:15;;;;;;;12.93;5.97;;;;;;;;;;5033391;28;20032;-75
2022/03/30 10:49:50;;;;;;;12.15;5.82;;;;;;;;;;5051535;28;20041;-74
2022/03/30 10:52:27;;;;;;;13.25;6.18;;;;;;;;;;5051631;28;20021;-75
2022/03/30 10:55:13;;;;;;;9.48;5.43;;;;;;;;;;5051638;28;20024;-75
2022/03/30 10:57:49;;;;;;;10.48;5.28;;;;;;;;;;5051401;28;20090;-75
2022/03/30 11:00:18;;;;;;;12.80;5.40;;;;;;;;;;5051593;28;20491;-75
2022/03/30 11:02:45;;;;;;;12.82;5.32;;;;;;;;;;5051574;28;20074;-75
2022/03/30 11:05:11;;;;;;;9.90;5.07;;;;;;;;;;5051612;28;20025;-75
2022/03/30 11:07:38;;;;;;;9.73;5.07;;;;;;;;;;5051372;28;20432;-75
2022/03/30 11:10:14;;;;;;;10.45;5.68;;;;;;;;;;5051472;28;20017;-75
2022/03/30 11:12:59;;;;;;;10.27;5.20;;;;;;;;;;5052436;28;20079;-75
2022/03/30 11:15:26;;;;;;;10.52;5.25;;;;;;;;;;5071452;28;20639;-74
2022/03/30 11:17:53;;;;;;;12.13;5.20;;;;;;;;;;5071563;28;20046;-75
2022/03/30 11:20:24;;;;;;;8.68;5.15;;;;;;;;;;5071314;28;20052;-75
2022/03/30 11:22:50;;;;;;;10.52;4.45;;;;;;;;;;5071318;28;20025;-74
2022/03/30 11:25:20;;;;;;;10.90;4.90;;;;;;;;;;5071317;28;20025;-75
2022/03/30 11:27:58;;;;;;;5.95;3.60;;;;;;;;;;5071004;28;20028;-75
2022/03/30 11:30:36;;;;;;;9.98;4.05;;;;;;;;;;5071176;28;20024;-75
2022/03/30 11:33:21;;;;;;;7.47;4.30;;;;;;;;;;5071422;28;20032;-75
2022/03/30 11:35:49;;;;;;;10.23;3.95;;;;;;;;;;5070923;28;20070;-75
2022/03/30 11:38:27;;;;;;;8.10;3.00;;;;;;;;;;5071223;28;20356;-75
2022/03/30 11:40:58;;;;;;;6.00;3.17;;;;;;;;;;5072901;28;20048;-75
2022/03/30 11:43:24;;;;;;;3.58;2.50;;;;;;;;;;5074867;28;20024;-75
2022/03/30 11:45:51;;;;;;;5.60;2.40;;;;;;;;;;5074835;28;20044;-74
2022/03/30 11:48:17;;;;;;;6.38;2.60;;;;;;;;;;5074639;28;20037;-75
2022/03/30 11:50:44;;;;;;;4.32;2.50;;;;;;;;;;5074757;28;20033;-75
2022/03/30 11:53:10;;;;;;;4.97;2.60;;;;;;;;;;5074898;28;20020;-75
2022/03/30 11:55:53;;;;;;;4.82;2.55;;;;;;;;;;5074493;28;20471;-75
2022/03/30 11:58:19;;;;;;;;;;;;;;;;;;5075246;28;20067;-75
2022/03/30 12:00:45;;;;;;;5.10;2.30;;;;;;;;;;5074450;28;19935;-75
2022/03/30 12:03:11;;;;;;;8.90;2.70;;;;;;;;;;5074741;28;20081;-75
2022/03/30 12:05:37;;;;;;;4.32;2.65;;;;;;;;;;5074518;28;20081;-75
2022/03/30 12:08:03;;;;;;;5.72;3.35;;;;;;;;;;5074451;28;20073;-75
2022/03/30 12:10:33;;;;;;;7.63;2.70;;;;;;;;;;5074470;28;20024;-75
2022/03/30 12:13:00;;;;;;;7.03;2.88;;;;;;;;;;5056261;28;20029;-75
2022/03/30 12:15:27;;;;;;;5.85;3.05;;;;;;;;;;5074289;28;20423;-75
2022/03/30 12:17:54;;;;;;;7.90;3.58;;;;;;;;;;5074399;28;20474;-75
2022/03/30 12:20:22;;;;;;;4.90;3.50;;;;;;;;;;5074178;28;20038;-75
2022/03/30 12:22:53;;;;;;;7.20;3.22;;;;;;;;;;5074052;28;20089;-75
2022/03/30 12:25:19;;;;;;;4.15;2.72;;;;;;;;;;5074077;28;20033;-75
2022/03/30 12:27:45;;;;;;;7.55;3.50;;;;;;;;;;5073853;28;20032;-75
2022/03/30 12:30:12;;;;;;;6.25;4.03;;;;;;;;;;5074200;28;20024;-74
2022/03/30 12:32:38;;;;;;;6.10;3.50;;;;;;;;;;5074592;28;20017;-74
2022/03/30 12:35:11;;;;;;;9.63;3.90;;;;;;;;;;5074200;28;20025;-75
2022/03/30 12:37:37;;;;;;;5.70;3.00;;;;;;;;;;5074292;28;20039;-75
2022/03/30 12:40:12;;;;;;;5.43;2.90;;;;;;;;;;5074064;28;20138;-74
2022/03/30 12:42:39;;;;;;;7.07;2.90;;;;;;;;;;5073500;28;20020;-75
2022/03/30 12:45:10;;;;;;;5.63;2.85;;;;;;;;;;5073848;28;20350;-74
2022/03/30 12:47:40;;;;;;;4.72;2.88;;;;;;;;;;5055496;28;20024;-75
2022/03/30 12:50:10;;;;;;;4.50;2.58;;;;;;;;;;5073465;28;20041;-74
2022/03/30 12:52:48;;;;;;;4.78;2.70;;;;;;;;;;5073183;28;20090;-74
2022/03/30 12:55:32;;;;;;;4.25;2.63;;;;;;;;;;5073550;28;20098;-75
2022/03/30 12:58:01;;;;;;;7.68;2.38;;;;;;;;;;5055469;28;20142;-75
2022/03/30 13:00:35;;;;;;;5.78;2.80;;;;;;;;;;5073536;28;20033;-75
2022/03/30 13:03:03;;;;;;;3.03;1.70;;;;;;;;;;5073457;28;20074;-75
2022/03/30 13:05:30;;;;;;;3.35;1.98;;;;;;;;;;5055297;28;20389;-74
2022/03/30 13:07:56;;;;;;;8.25;2.45;;;;;;;;;;5073102;28;20447;-74
2022/03/30 13:10:23;;;;;;;3.85;2.00;;;;;;;;;;5073161;28;20520;-74
2022/03/30 13:12:55;;;;;;;3.50;2.20;;;;;;;;;;5072937;28;20024;-75
2022/03/30 13:15:21;;;;;;;4.03;2.40;;;;;;;;;;5073098;28;20024;-75
2022/03/30 13:18:20;;;;;;;4.45;2.17;;;;;;;;;;5072884;28;20070;-75
2022/03/30 13:20:54;;;;;;;4.88;2.78;;;;;;;;;;4991255;28;20043;-74
2022/03/30 13:23:21;;;;;;;4.28;1.90;;;;;;;;;;4991270;28;20038;-75
2022/03/30 13:25:47;;;;;;;3.92;2.05;;;;;;;;;;4991292;28;20048;-75
2022/03/30 13:28:23;;;;;;;6.97;2.72;;;;;;;;;;4991320;28;20030;-75
2022/03/30 13:30:49;;;;;;;3.22;1.92;;;;;;;;;;4991263;28;20401;-75
2022/03/30 13:33:15;;;;;;;11.05;4.85;;;;;;;;;;4974854;28;20029;-75
2022/03/30 13:35:41;;;;;;;6.30;2.33;;;;;;;;;;4990892;28;20031;-75
2022/03/30 13:38:17;;;;;;;3.92;2.20;;;;;;;;;;4991134;28;20046;-75
2022/03/30 13:40:43;;;;;;;4.97;2.28;;;;;;;;;;4990795;28;20037;-75
2022/03/30 13:43:09;;;;;;;3.00;1.90;;;;;;;;;;4990870;28;20061;-75
2022/03/30 13:45:36;;;;;;;5.70;2.28;;;;;;;;;;4991062;28;20449;-75
2022/03/30 13:48:02;;;;;;;3.00;1.77;;;;;;;;;;4990825;28;20065;-75
2022/03/30 13:50:29;;;;;;;3.40;2.08;;;;;;;;;;4990918;28;20038;-75
2022/03/30 13:52:55;;;;;;;4.80;1.75;;;;;;;;;;4990642;28;20388;-75
2022/03/30 13:55:21;;;;;;;2.45;2.00;;;;;;;;;;4996465;28;20033;-74
2022/03/30 13:57:47;;;;;;;3.10;2.00;;;;;;;;;;5052343;28;20063;-75
2022/03/30 14:00:14;;;;;;;5.63;2.67;;;;;;;;;;5052305;28;20052;-75
2022/03/30 14:02:40;;;;;;;4.47;2.33;;;;;;;;;;5051517;28;20082;-75
2022/03/30 14:05:06;;;;;;;2.67;1.83;;;;;;;;;;5052102;28;20029;-74
2022/03/30 14:07:32;;;;;;;5.00;1.83;;;;;;;;;;5051995;28;20056;-75
2022/03/30 14:09:59;;;;;;;3.03;1.88;;;;;;;;;;5052039;28;20031;-74
2022/03/30 14:12:27;;;;;;;6.90;2.25;;;;;;;;;;5051918;28;20021;-75
2022/03/30 14:14:53;;;;;;;4.00;1.65;;;;;;;;;;5071200;28;20379;-75
2022/03/30 14:17:21;;;;;;;2.42;1.85;;;;;;;;;;5071969;28;20036;-75
2022/03/30 14:19:47;;;;;;;5.00;1.67;;;;;;;;;;5071856;28;20108;-75
2022/03/30 14:22:13;;;;;;;4.95;1.83;;;;;;;;;;5071796;28;20098;-75
2022/03/30 14:24:39;;;;;;;4.07;1.63;;;;;;;;;;5072067;28;20027;-75
2022/03/30 14:27:05;;;;;;;4.93;1.70;;;;;;;;;;5071692;28;20529;-75
2022/03/30 14:29:31;;;;;;;8.57;2.47;;;;;;;;;;5071678;28;20040;-75
2022/03/30 14:31:57;;;;;;;6.55;2.03;;;;;;;;;;5071870;28;20483;-75
2022/03/30 14:34:23;;;;;;;5.05;1.70;;;;;;;;;;5071712;28;20016;-75
2022/03/30 14:36:49;;;;;;;4.22;1.63;;;;;;;;;;5071478;28;20046;-74
2022/03/30 14:39:16;;;;;;;7.90;1.77;;;;;;;;;;5071639;28;20032;-74
2022/03/30 14:41:42;;;;;;;10.68;2.53;;;;;;;;;;5059522;28;20125;-74
2022/03/30 14:44:09;;;;;;;4.43;1.98;;;;;;;;;;5051349;28;20051;-74